Time;durP1;ratioP1;P1;durP2;ratioP2;P2;SDS_P1;SDS_P2;PMS_P1;PMS_P2;Temp;Humidity;BMP_temperature;BMP_pressure;BME280_temperature;BME280_humidity;BME280_pressure;Samples;Min_cycle;Max_cycle;Signal;HPM_P1;HPM_P2
2023/08/19 00:01:10;;;;;;;15.30;10.40;;;;;;;;;;103767;1291;544991;-80
2023/08/19 00:04:44;;;;;;;14.30;9.60;;;;;;;;;;104046;1292;544963;-79
2023/08/19 00:08:26;;;;;;;13.20;9.60;;;;;;;;;;104042;1292;544999;-75
2023/08/19 00:12:04;;;;;;;13.90;11.10;;;;;;;;;;103919;1290;544959;-75
2023/08/19 00:15:41;;;;;;;13.60;10.00;;;;;;;;;;104071;1287;545034;-79
2023/08/19 00:19:19;;;;;;;16.50;11.20;;;;;;;;;;103760;1290;544734;-79
2023/08/19 00:22:57;;;;;;;15.00;11.00;;;;;;;;;;103716;1291;544945;-76
2023/08/19 00:26:33;;;;;;;15.10;12.10;;;;;;;;;;103753;1290;544914;-74
2023/08/19 00:30:11;;;;;;;16.30;10.40;;;;;;;;;;103858;1291;545483;-79
2023/08/19 00:33:48;;;;;;;13.30;9.90;;;;;;;;;;103976;1291;544962;-80
2023/08/19 00:37:26;;;;;;;15.40;10.90;;;;;;;;;;103763;1295;545042;-79
2023/08/19 00:41:03;;;;;;;15.30;12.10;;;;;;;;;;103749;1289;544957;-81
2023/08/19 00:44:41;;;;;;;14.00;10.60;;;;;;;;;;104010;1291;545375;-79
2023/08/19 00:48:18;;;;;;;12.00;9.10;;;;;;;;;;103783;1290;544749;-80
2023/08/19 00:51:57;;;;;;;12.90;9.40;;;;;;;;;;104169;1289;544925;-80
2023/08/19 00:55:34;;;;;;;15.20;10.20;;;;;;;;;;103815;1291;544956;-81
2023/08/19 00:59:11;;;;;;;13.30;10.20;;;;;;;;;;104240;1289;545086;-76
2023/08/19 01:02:48;;;;;;;14.80;9.80;;;;;;;;;;104181;1289;544922;-80
2023/08/19 01:06:29;;;;;;;13.30;9.50;;;;;;;;;;103783;1289;546051;-75
2023/08/19 01:10:03;;;;;;;12.50;9.10;;;;;;;;;;104017;1291;544871;-78
2023/08/19 01:13:48;;;;;;;12.60;8.90;;;;;;;;;;103742;1292;544804;-78
2023/08/19 01:17:22;;;;;;;11.30;8.20;;;;;;;;;;103773;1289;545750;-81
2023/08/19 01:20:56;;;;;;;11.60;8.10;;;;;;;;;;103769;1301;544794;-78
2023/08/19 01:24:37;;;;;;;10.40;7.40;;;;;;;;;;103635;1291;544786;-74
2023/08/19 01:28:10;;;;;;;13.80;9.00;;;;;;;;;;103776;1291;545248;-80
2023/08/19 01:31:48;;;;;;;12.10;8.70;;;;;;;;;;103819;1298;544798;-81
2023/08/19 01:35:35;;;;;;;10.50;8.10;;;;;;;;;;103852;1289;547888;-80
2023/08/19 01:39:04;;;;;;;12.20;9.00;;;;;;;;;;103819;1291;545139;-81
2023/08/19 01:42:41;;;;;;;13.90;10.10;;;;;;;;;;104098;1289;546489;-78
2023/08/19 01:46:18;;;;;;;12.60;9.90;;;;;;;;;;103792;1290;545028;-75
2023/08/19 01:50:01;;;;;;;13.10;10.20;;;;;;;;;;103488;1291;547783;-74
2023/08/19 01:53:33;;;;;;;12.00;9.40;;;;;;;;;;103843;1292;545422;-76
2023/08/19 01:57:10;;;;;;;13.80;10.20;;;;;;;;;;103782;1292;544871;-78
2023/08/19 02:00:48;;;;;;;16.60;12.20;;;;;;;;;;103724;1292;544870;-79
2023/08/19 02:04:25;;;;;;;20.90;13.50;;;;;;;;;;103780;1292;546155;-80
2023/08/19 02:08:02;;;;;;;18.40;12.30;;;;;;;;;;103779;1288;545790;-76
2023/08/19 02:11:40;;;;;;;13.70;10.90;;;;;;;;;;103772;1291;544778;-76
2023/08/19 02:15:17;;;;;;;16.80;12.30;;;;;;;;;;103727;1289;545300;-78
2023/08/19 02:18:56;;;;;;;14.60;12.20;;;;;;;;;;103807;1292;544796;-75
2023/08/19 02:22:32;;;;;;;15.00;11.10;;;;;;;;;;103798;1288;544805;-74
2023/08/19 02:26:15;;;;;;;16.20;10.50;;;;;;;;;;103724;1289;547957;-75
2023/08/19 02:29:47;;;;;;;12.30;9.40;;;;;;;;;;104233;1289;544987;-75
2023/08/19 02:33:30;;;;;;;13.60;10.80;;;;;;;;;;103797;1292;548012;-75
2023/08/19 02:37:02;;;;;;;13.70;9.80;;;;;;;;;;103830;1289;545005;-79
2023/08/19 02:40:41;;;;;;;13.90;9.60;;;;;;;;;;103800;1291;544980;-77
2023/08/19 02:44:17;;;;;;;11.70;9.20;;;;;;;;;;103798;1291;545129;-75
2023/08/19 02:47:55;;;;;;;12.80;9.80;;;;;;;;;;104098;1289;545137;-74
2023/08/19 02:51:32;;;;;;;12.70;9.20;;;;;;;;;;104064;1288;545613;-75
2023/08/19 02:55:10;;;;;;;13.80;9.20;;;;;;;;;;104140;1290;544975;-74
2023/08/19 02:58:47;;;;;;;13.70;9.90;;;;;;;;;;103923;1289;545221;-75
2023/08/19 03:02:31;;;;;;;13.50;10.40;;;;;;;;;;103599;1291;547990;-74
2023/08/19 03:06:03;;;;;;;12.10;9.10;;;;;;;;;;103754;1289;546459;-74
2023/08/19 03:09:42;;;;;;;10.80;8.90;;;;;;;;;;103642;1290;546138;-80
2023/08/19 03:13:17;;;;;;;13.10;9.70;;;;;;;;;;104293;1285;544824;-75
2023/08/19 03:17:00;;;;;;;13.80;10.30;;;;;;;;;;103291;1294;547943;-75
2023/08/19 03:20:32;;;;;;;14.00;10.60;;;;;;;;;;103753;1292;544985;-74
2023/08/19 03:24:09;;;;;;;14.50;9.80;;;;;;;;;;104029;1292;544953;-81
2023/08/19 03:27:46;;;;;;;14.50;10.50;;;;;;;;;;103742;1291;544900;-76
2023/08/19 03:31:24;;;;;;;15.20;11.80;;;;;;;;;;104028;1292;544968;-74
2023/08/19 03:35:02;;;;;;;15.00;11.00;;;;;;;;;;103709;1292;544952;-78
2023/08/19 03:38:39;;;;;;;14.10;10.60;;;;;;;;;;104105;1285;544927;-75
2023/08/19 03:42:17;;;;;;;16.30;10.90;;;;;;;;;;103813;1289;545775;-75
2023/08/19 03:45:54;;;;;;;14.30;10.40;;;;;;;;;;103719;1291;545711;-80
2023/08/19 03:49:31;;;;;;;15.90;11.40;;;;;;;;;;103805;1292;544826;-81
2023/08/19 03:53:09;;;;;;;15.30;10.60;;;;;;;;;;103732;1291;545336;-75
2023/08/19 03:56:46;;;;;;;14.00;9.60;;;;;;;;;;103801;1291;545749;-74
2023/08/19 04:00:24;;;;;;;15.50;11.00;;;;;;;;;;103761;1292;545454;-75
2023/08/19 04:04:01;;;;;;;14.40;11.80;;;;;;;;;;103772;1289;545074;-79
2023/08/19 04:07:39;;;;;;;14.40;10.60;;;;;;;;;;103839;1289;545109;-74
2023/08/19 04:11:22;;;;;;;15.30;10.40;;;;;;;;;;103636;1292;547922;-74
2023/08/19 04:14:53;;;;;;;13.10;9.90;;;;;;;;;;103758;1289;544955;-74
2023/08/19 04:18:32;;;;;;;15.10;11.60;;;;;;;;;;103774;1290;544779;-79
2023/08/19 04:22:11;;;;;;;14.80;10.40;;;;;;;;;;103757;1289;545271;-75
2023/08/19 04:25:46;;;;;;;14.30;9.40;;;;;;;;;;103777;1291;544780;-79
2023/08/19 04:29:23;;;;;;;13.90;10.10;;;;;;;;;;103892;1288;544731;-79
2023/08/19 04:33:00;;;;;;;13.80;10.30;;;;;;;;;;103706;1289;544793;-75
2023/08/19 04:36:38;;;;;;;15.40;10.60;;;;;;;;;;103747;1292;544854;-75
2023/08/19 04:40:16;;;;;;;13.80;10.40;;;;;;;;;;103733;1291;544976;-79
2023/08/19 04:43:53;;;;;;;13.20;10.30;;;;;;;;;;103563;1305;545679;-74
2023/08/19 04:47:32;;;;;;;13.40;9.80;;;;;;;;;;103826;1289;544859;-80
2023/08/19 04:51:08;;;;;;;13.10;9.10;;;;;;;;;;103692;1291;545488;-75
2023/08/19 04:54:51;;;;;;;14.80;10.30;;;;;;;;;;103618;1292;548009;-75
2023/08/19 04:58:23;;;;;;;13.70;10.00;;;;;;;;;;103883;1289;544957;-74
2023/08/19 05:02:06;;;;;;;14.40;11.10;;;;;;;;;;103659;1290;547880;-75
2023/08/19 05:05:40;;;;;;;14.50;10.10;;;;;;;;;;103905;1293;545989;-77
2023/08/19 05:09:16;;;;;;;14.80;10.20;;;;;;;;;;103898;1288;545429;-78
2023/08/19 05:12:59;;;;;;;12.10;9.20;;;;;;;;;;103616;1290;548007;-76
2023/08/19 05:16:30;;;;;;;12.60;9.70;;;;;;;;;;103811;1292;546022;-76
2023/08/19 05:20:10;;;;;;;13.00;9.20;;;;;;;;;;103982;1290;544894;-79
2023/08/19 05:23:45;;;;;;;12.70;8.10;;;;;;;;;;103774;1291;545423;-77
2023/08/19 05:27:23;;;;;;;13.80;9.00;;;;;;;;;;103738;1292;544927;-79
2023/08/19 05:31:00;;;;;;;16.20;9.70;;;;;;;;;;103750;1292;544980;-79
2023/08/19 05:34:38;;;;;;;20.70;11.20;;;;;;;;;;104266;1289;545019;-80
2023/08/19 05:38:15;;;;;;;16.40;9.40;;;;;;;;;;104560;1282;544980;-79
2023/08/19 05:41:58;;;;;;;13.10;8.20;;;;;;;;;;103613;1292;545637;-80
2023/08/19 05:45:32;;;;;;;12.10;7.60;;;;;;;;;;103747;1290;545109;-77
2023/08/19 05:49:08;;;;;;;12.20;7.20;;;;;;;;;;104101;1289;545502;-75
2023/08/19 05:52:51;;;;;;;11.60;7.30;;;;;;;;;;103608;1291;547777;-77
2023/08/19 05:56:23;;;;;;;10.50;6.50;;;;;;;;;;103809;1289;545702;-77
2023/08/19 06:00:00;;;;;;;12.90;7.30;;;;;;;;;;103772;1289;545174;-75
2023/08/19 06:03:38;;;;;;;12.10;7.70;;;;;;;;;;103632;1292;544797;-76
2023/08/19 06:07:19;;;;;;;13.60;7.30;;;;;;;;;;103836;1288;544812;-78
2023/08/19 06:11:04;;;;;;;11.30;6.60;;;;;;;;;;103786;1289;545595;-75
2023/08/19 06:14:30;;;;;;;11.80;7.70;;;;;;;;;;103786;1291;545425;-75
2023/08/19 06:18:04;;;;;;;10.80;7.80;;;;;;;;;;103957;1288;545317;-75
2023/08/19 06:21:46;;;;;;;13.80;8.20;;;;;;;;;;103959;1292;544828;-77
2023/08/19 06:25:23;;;;;;;13.30;9.00;;;;;;;;;;103741;1291;544891;-75
2023/08/19 06:29:01;;;;;;;13.40;8.00;;;;;;;;;;103784;1291;545239;-73
2023/08/19 06:32:38;;;;;;;13.10;8.30;;;;;;;;;;103665;1295;545238;-75
2023/08/19 06:36:17;;;;;;;13.10;9.40;;;;;;;;;;103880;1289;544935;-75
2023/08/19 06:39:57;;;;;;;21.70;12.00;;;;;;;;;;103720;1292;546329;-73
2023/08/19 06:43:31;;;;;;;18.60;12.70;;;;;;;;;;103766;1295;545164;-76
2023/08/19 06:47:09;;;;;;;20.50;16.50;;;;;;;;;;103771;1289;545326;-77
2023/08/19 06:50:47;;;;;;;28.00;20.30;;;;;;;;;;103735;1292;545634;-78
2023/08/19 06:54:23;;;;;;;25.00;20.10;;;;;;;;;;103766;1292;545509;-74
2023/08/19 06:58:06;;;;;;;29.60;21.10;;;;;;;;;;103849;1289;544805;-78
2023/08/19 07:01:40;;;;;;;18.60;14.90;;;;;;;;;;103776;1292;544995;-76
2023/08/19 07:05:17;;;;;;;18.20;13.30;;;;;;;;;;103830;1295;545932;-74
2023/08/19 07:08:50;;;;;;;17.70;12.30;;;;;;;;;;104018;1289;545037;-73
2023/08/19 07:12:32;;;;;;;14.70;10.50;;;;;;;;;;103796;1291;544977;-79
2023/08/19 07:16:11;;;;;;;14.10;9.40;;;;;;;;;;103711;1289;544941;-77
2023/08/19 07:19:48;;;;;;;19.60;9.60;;;;;;;;;;103666;1292;544831;-74
2023/08/19 07:23:25;;;;;;;13.20;8.50;;;;;;;;;;103598;1291;544628;-73
2023/08/19 07:27:06;;;;;;;11.90;8.90;;;;;;;;;;103859;1289;545503;-76
2023/08/19 07:30:40;;;;;;;15.00;10.10;;;;;;;;;;103664;1292;545032;-78
2023/08/19 07:34:16;;;;;;;12.70;9.00;;;;;;;;;;103697;1291;544792;-76
2023/08/19 07:37:54;;;;;;;14.20;9.40;;;;;;;;;;104038;1289;545369;-74
2023/08/19 07:41:32;;;;;;;14.20;9.50;;;;;;;;;;103800;1290;545253;-74
2023/08/19 07:45:10;;;;;;;14.10;9.20;;;;;;;;;;103657;1291;545535;-75
2023/08/19 07:48:47;;;;;;;12.20;8.70;;;;;;;;;;103801;1295;545072;-74
2023/08/19 07:52:24;;;;;;;14.70;9.60;;;;;;;;;;103795;1292;545972;-76
2023/08/19 07:56:01;;;;;;;13.10;9.90;;;;;;;;;;103680;1290;544980;-75
2023/08/19 07:59:39;;;;;;;13.70;9.40;;;;;;;;;;103585;1289;545089;-74
2023/08/19 08:03:17;;;;;;;14.80;9.50;;;;;;;;;;103594;1295;544935;-76
2023/08/19 08:06:55;;;;;;;12.00;8.20;;;;;;;;;;103761;1289;544927;-77
2023/08/19 08:10:32;;;;;;;12.30;8.70;;;;;;;;;;103788;1290;544943;-75
2023/08/19 08:14:05;;;;;;;12.60;8.80;;;;;;;;;;103933;1289;544921;-77
2023/08/19 08:17:47;;;;;;;11.20;8.30;;;;;;;;;;103776;1289;544978;-78
2023/08/19 08:21:25;;;;;;;15.10;7.70;;;;;;;;;;103701;1291;545587;-77
2023/08/19 08:25:04;;;;;;;10.10;6.80;;;;;;;;;;103896;1288;545605;-75
2023/08/19 08:28:41;;;;;;;11.90;8.00;;;;;;;;;;103988;1292;545944;-75
2023/08/19 08:32:17;;;;;;;14.10;7.70;;;;;;;;;;103814;1289;544738;-77
2023/08/19 08:35:51;;;;;;;11.10;7.90;;;;;;;;;;103912;1289;544805;-73
2023/08/19 08:39:33;;;;;;;9.70;6.70;;;;;;;;;;103781;1292;545023;-76
2023/08/19 08:43:10;;;;;;;11.30;6.90;;;;;;;;;;103750;1291;544787;-78
2023/08/19 08:46:46;;;;;;;10.10;6.30;;;;;;;;;;103700;1292;544783;-79
2023/08/19 08:50:28;;;;;;;10.20;6.80;;;;;;;;;;103694;1291;544917;-72
2023/08/19 08:54:07;;;;;;;10.20;6.70;;;;;;;;;;103777;1299;545648;-73
2023/08/19 08:57:43;;;;;;;9.60;6.50;;;;;;;;;;103825;1289;546080;-74
2023/08/19 09:01:22;;;;;;;9.40;6.60;;;;;;;;;;103489;1295;545699;-75
2023/08/19 09:05:05;;;;;;;10.60;6.20;;;;;;;;;;103610;1292;548198;-77
2023/08/19 09:18:58;;;;;;;9.90;6.50;;;;;;;;;;104715;1284;550098;-74
2023/08/19 09:21:51;;;;;;;8.50;6.30;;;;;;;;;;103483;1298;545035;-74
2023/08/19 09:25:30;;;;;;;10.70;5.80;;;;;;;;;;103727;1292;545002;-73
2023/08/19 09:29:06;;;;;;;9.00;5.90;;;;;;;;;;103746;1291;545521;-75
2023/08/19 09:32:45;;;;;;;9.80;6.80;;;;;;;;;;103814;1292;545102;-75
2023/08/19 09:36:24;;;;;;;9.80;5.70;;;;;;;;;;103718;1292;544919;-73
2023/08/19 09:39:58;;;;;;;10.20;6.60;;;;;;;;;;103748;1291;544753;-74
2023/08/19 09:43:38;;;;;;;8.90;5.60;;;;;;;;;;103783;1291;545020;-74
2023/08/19 09:47:13;;;;;;;9.30;5.50;;;;;;;;;;103690;1289;544955;-73
2023/08/19 09:50:50;;;;;;;8.70;6.40;;;;;;;;;;103805;1292;545723;-74
2023/08/19 09:54:28;;;;;;;11.30;6.40;;;;;;;;;;103678;1290;545089;-76
2023/08/19 09:58:05;;;;;;;10.10;6.40;;;;;;;;;;104514;1280;546852;-74
2023/08/19 10:01:43;;;;;;;11.20;6.80;;;;;;;;;;103786;1290;544949;-74
2023/08/19 10:05:20;;;;;;;9.50;5.90;;;;;;;;;;103794;1288;545005;-76
2023/08/19 10:09:06;;;;;;;9.40;6.10;;;;;;;;;;103413;1292;548437;-76
2023/08/19 10:12:38;;;;;;;9.30;6.00;;;;;;;;;;103724;1292;544983;-74
2023/08/19 10:16:15;;;;;;;10.40;6.50;;;;;;;;;;103824;1291;545520;-74
2023/08/19 10:20:05;;;;;;;10.30;5.90;;;;;;;;;;104049;1292;545251;-77
2023/08/19 10:23:33;;;;;;;10.20;5.80;;;;;;;;;;103610;1295;548115;-75
2023/08/19 10:37:30;;;;;;;9.90;6.30;;;;;;;;;;104885;1279;550820;-78
2023/08/19 10:40:23;;;;;;;9.00;5.90;;;;;;;;;;103826;1289;544769;-77
2023/08/19 10:44:00;;;;;;;8.60;6.00;;;;;;;;;;103820;1289;544964;-75
2023/08/19 10:47:39;;;;;;;8.80;5.40;;;;;;;;;;103496;1294;544985;-75
2023/08/19 10:51:16;;;;;;;14.70;10.00;;;;;;;;;;103627;1292;545930;-76
2023/08/19 10:54:51;;;;;;;9.20;6.50;;;;;;;;;;103806;1291;545050;-77
2023/08/19 10:58:29;;;;;;;8.40;5.50;;;;;;;;;;103751;1289;544989;-75
2023/08/19 11:02:08;;;;;;;9.00;6.10;;;;;;;;;;103736;1292;544794;-75
2023/08/19 11:05:48;;;;;;;8.60;5.80;;;;;;;;;;103722;1291;545554;-75
2023/08/19 11:09:26;;;;;;;8.60;6.00;;;;;;;;;;103971;1292;544814;-73
2023/08/19 11:13:00;;;;;;;9.70;7.00;;;;;;;;;;103753;1292;544957;-75
2023/08/19 11:16:37;;;;;;;9.60;6.30;;;;;;;;;;103846;1290;544975;-75
2023/08/19 11:20:27;;;;;;;9.00;5.60;;;;;;;;;;103564;1294;548103;-75
2023/08/19 11:23:52;;;;;;;8.50;5.70;;;;;;;;;;103808;1289;544823;-74
2023/08/19 11:38:17;;;;;;;7.90;5.10;;;;;;;;;;107177;1264;549317;-74
2023/08/19 11:41:02;;;;;;;8.40;5.30;;;;;;;;;;103764;1294;545950;-75
2023/08/19 11:44:43;;;;;;;8.30;5.80;;;;;;;;;;103810;1292;546018;-76
2023/08/19 11:58:54;;;;;;;9.30;5.70;;;;;;;;;;104183;1288;554175;-76
2023/08/19 12:01:41;;;;;;;7.70;6.30;;;;;;;;;;103941;1289;544746;-75
2023/08/19 12:05:26;;;;;;;8.70;5.30;;;;;;;;;;103528;1291;544992;-75
2023/08/19 12:09:07;;;;;;;8.10;5.40;;;;;;;;;;103255;1298;545264;-75
2023/08/19 12:23:23;;;;;;;9.80;5.60;;;;;;;;;;106874;1257;549945;-79
2023/08/19 12:26:21;;;;;;;8.20;5.50;;;;;;;;;;103581;1289;548134;-75
2023/08/19 12:29:51;;;;;;;7.80;5.40;;;;;;;;;;103686;1292;544785;-75
2023/08/19 12:33:36;;;;;;;9.90;6.10;;;;;;;;;;103599;1289;548293;-75
2023/08/19 12:37:08;;;;;;;9.30;5.60;;;;;;;;;;103764;1289;545567;-75
2023/08/19 12:40:46;;;;;;;8.10;5.70;;;;;;;;;;103765;1291;544743;-75
2023/08/19 12:44:22;;;;;;;7.70;5.60;;;;;;;;;;103780;1291;544719;-76
2023/08/19 12:58:22;;;;;;;7.60;4.70;;;;;;;;;;104476;1290;550354;-74
2023/08/19 13:01:14;;;;;;;7.60;5.10;;;;;;;;;;103687;1291;544963;-74
2023/08/19 13:04:57;;;;;;;8.90;6.10;;;;;;;;;;103643;1292;548269;-74
2023/08/19 13:08:29;;;;;;;7.80;5.70;;;;;;;;;;103784;1295;544708;-75
2023/08/19 13:12:08;;;;;;;9.00;6.10;;;;;;;;;;103955;1289;547999;-76
2023/08/19 13:15:44;;;;;;;8.80;5.50;;;;;;;;;;103904;1289;546024;-74
2023/08/19 13:19:17;;;;;;;8.60;5.50;;;;;;;;;;103855;1289;545956;-75
2023/08/19 13:23:15;;;;;;;8.50;5.00;;;;;;;;;;104203;1289;548008;-76
2023/08/19 13:37:06;;;;;;;10.00;5.50;;;;;;;;;;104293;1283;553441;-76
2023/08/19 13:39:57;;;;;;;7.90;5.20;;;;;;;;;;104777;1285;545317;-75
2023/08/19 13:43:37;;;;;;;8.10;4.70;;;;;;;;;;103848;1289;545833;-75
2023/08/19 13:57:56;;;;;;;7.80;6.10;;;;;;;;;;106804;1262;553619;-75
2023/08/19 14:00:48;;;;;;;9.00;6.10;;;;;;;;;;103839;1292;545530;-76
2023/08/19 14:04:25;;;;;;;11.50;5.70;;;;;;;;;;103704;1292;544951;-75
2023/08/19 14:08:05;;;;;;;8.60;5.50;;;;;;;;;;103576;1295;547952;-75
2023/08/19 14:11:41;;;;;;;8.70;5.20;;;;;;;;;;103720;1290;545036;-75
2023/08/19 14:15:18;;;;;;;8.10;5.10;;;;;;;;;;103658;1295;545354;-76
2023/08/19 14:18:56;;;;;;;9.20;5.90;;;;;;;;;;103766;1292;545762;-76
2023/08/19 14:22:33;;;;;;;8.10;6.00;;;;;;;;;;103757;1291;545781;-75
2023/08/19 14:26:10;;;;;;;8.90;6.20;;;;;;;;;;103895;1292;544718;-75
2023/08/19 14:29:54;;;;;;;9.10;6.10;;;;;;;;;;103543;1293;545983;-76
2023/08/19 14:33:26;;;;;;;8.50;6.10;;;;;;;;;;103791;1295;546259;-75
2023/08/19 14:37:09;;;;;;;7.50;6.00;;;;;;;;;;103798;1291;548014;-78
2023/08/19 14:40:40;;;;;;;8.20;6.20;;;;;;;;;;103812;1290;544656;-77
2023/08/19 14:44:18;;;;;;;7.80;5.70;;;;;;;;;;104011;1292;545076;-79
2023/08/19 14:48:01;;;;;;;9.30;5.60;;;;;;;;;;103634;1291;547790;-77
2023/08/19 14:51:33;;;;;;;8.10;5.50;;;;;;;;;;103784;1289;544797;-75
2023/08/19 14:55:16;;;;;;;7.80;4.90;;;;;;;;;;104015;1285;548140;-77
2023/08/19 14:58:48;;;;;;;7.70;5.70;;;;;;;;;;103818;1292;545040;-78
2023/08/19 15:02:43;;;;;;;9.30;5.60;;;;;;;;;;103471;1292;548145;-76
2023/08/19 15:06:03;;;;;;;13.60;9.60;;;;;;;;;;103714;1292;545013;-76
2023/08/19 15:09:40;;;;;;;8.60;6.30;;;;;;;;;;103714;1289;544758;-75
2023/08/19 15:13:19;;;;;;;8.10;6.20;;;;;;;;;;103895;1292;544823;-75
2023/08/19 15:16:55;;;;;;;9.10;5.10;;;;;;;;;;105875;1292;545053;-76
2023/08/19 15:20:29;;;;;;;8.30;5.40;;;;;;;;;;104331;1286;544769;-76
2023/08/19 15:24:11;;;;;;;8.50;5.60;;;;;;;;;;104634;1285;544808;-78
2023/08/19 15:27:48;;;;;;;8.30;5.50;;;;;;;;;;104572;1289;544865;-76
2023/08/19 15:31:31;;;;;;;8.90;6.30;;;;;;;;;;103828;1292;547889;-77
2023/08/19 15:35:05;;;;;;;9.30;6.60;;;;;;;;;;103909;1289;544818;-75
2023/08/19 15:38:41;;;;;;;7.80;5.80;;;;;;;;;;104549;1285;546416;-77
2023/08/19 15:42:20;;;;;;;8.50;5.30;;;;;;;;;;103734;1289;547796;-76
2023/08/19 15:45:56;;;;;;;10.00;5.50;;;;;;;;;;103747;1291;544887;-75
2023/08/19 15:49:42;;;;;;;8.70;5.20;;;;;;;;;;103622;1290;548039;-75
2023/08/19 15:53:16;;;;;;;7.50;6.00;;;;;;;;;;103636;1293;546468;-77
2023/08/19 15:56:48;;;;;;;11.10;6.80;;;;;;;;;;103876;1290;544993;-75
2023/08/19 16:00:26;;;;;;;9.00;6.20;;;;;;;;;;103726;1291;546034;-75
2023/08/19 16:04:03;;;;;;;11.20;9.20;;;;;;;;;;103686;1295;545004;-77
2023/08/19 16:07:41;;;;;;;11.90;10.20;;;;;;;;;;103781;1291;545743;-75
2023/08/19 16:11:17;;;;;;;14.50;11.80;;;;;;;;;;103821;1288;544942;-76
2023/08/19 16:14:57;;;;;;;16.80;15.00;;;;;;;;;;103798;1295;548463;-77
2023/08/19 16:18:38;;;;;;;12.30;10.30;;;;;;;;;;103601;1290;548252;-75
2023/08/19 16:22:10;;;;;;;14.60;12.80;;;;;;;;;;103888;1291;544819;-75
2023/08/19 16:25:48;;;;;;;11.10;9.90;;;;;;;;;;103731;1295;545361;-75
2023/08/19 16:29:31;;;;;;;9.90;8.40;;;;;;;;;;103644;1292;548168;-77
2023/08/19 16:33:05;;;;;;;10.00;7.00;;;;;;;;;;103654;1293;548013;-77
2023/08/19 16:36:47;;;;;;;10.00;7.10;;;;;;;;;;103623;1292;547978;-75
2023/08/19 16:40:23;;;;;;;10.40;7.50;;;;;;;;;;103408;1291;547834;-78
2023/08/19 16:43:55;;;;;;;11.90;6.90;;;;;;;;;;104044;1289;545440;-77
2023/08/19 16:47:33;;;;;;;9.90;6.20;;;;;;;;;;103809;1302;545140;-75
2023/08/19 16:51:15;;;;;;;11.20;7.90;;;;;;;;;;103392;1294;547973;-76
2023/08/19 16:54:48;;;;;;;11.20;7.40;;;;;;;;;;103726;1291;544756;-75
2023/08/19 16:58:31;;;;;;;10.50;8.30;;;;;;;;;;103537;1293;549344;-75
2023/08/19 17:02:03;;;;;;;10.90;7.20;;;;;;;;;;103627;1291;545557;-80
2023/08/19 17:05:40;;;;;;;10.30;7.00;;;;;;;;;;103743;1295;545465;-77
2023/08/19 17:09:23;;;;;;;10.40;7.00;;;;;;;;;;103831;1300;548108;-77
2023/08/19 17:13:00;;;;;;;8.70;6.40;;;;;;;;;;103575;1292;547883;-78
2023/08/19 17:16:32;;;;;;;12.10;8.80;;;;;;;;;;104020;1291;544991;-77
2023/08/19 17:20:16;;;;;;;16.70;13.10;;;;;;;;;;103266;1297;547766;-77
2023/08/19 17:23:47;;;;;;;20.30;14.20;;;;;;;;;;103733;1290;544798;-77
2023/08/19 17:27:30;;;;;;;18.60;12.20;;;;;;;;;;103612;1291;548165;-77
2023/08/19 17:31:03;;;;;;;17.30;13.40;;;;;;;;;;103484;1295;545064;-79
2023/08/19 17:34:45;;;;;;;19.90;15.10;;;;;;;;;;103434;1294;547865;-78
2023/08/19 17:38:17;;;;;;;17.40;12.80;;;;;;;;;;103818;1292;544837;-78
2023/08/19 17:41:54;;;;;;;16.80;12.00;;;;;;;;;;104031;1299;544765;-78
2023/08/19 17:45:38;;;;;;;16.50;11.30;;;;;;;;;;103521;1291;548669;-77
2023/08/19 17:49:15;;;;;;;16.60;11.10;;;;;;;;;;103306;1294;548090;-77
2023/08/19 17:52:47;;;;;;;14.30;10.20;;;;;;;;;;103704;1291;544979;-77
2023/08/19 17:56:30;;;;;;;15.10;10.40;;;;;;;;;;103530;1292;545948;-79
2023/08/19 18:00:03;;;;;;;13.60;11.20;;;;;;;;;;104005;1295;545704;-75
2023/08/19 18:03:45;;;;;;;14.80;9.90;;;;;;;;;;103857;1294;547826;-75
2023/08/19 18:07:17;;;;;;;12.70;9.00;;;;;;;;;;103690;1291;545472;-76
2023/08/19 18:11:00;;;;;;;17.00;11.30;;;;;;;;;;103623;1291;548013;-76
2023/08/19 18:14:37;;;;;;;15.90;12.00;;;;;;;;;;103700;1291;547979;-76
2023/08/19 18:18:15;;;;;;;14.50;10.70;;;;;;;;;;103605;1295;548066;-77
2023/08/19 18:21:52;;;;;;;12.30;10.00;;;;;;;;;;103794;1288;548023;-76
2023/08/19 18:25:30;;;;;;;10.80;8.60;;;;;;;;;;103635;1294;548318;-76
2023/08/19 18:29:02;;;;;;;11.60;8.90;;;;;;;;;;103673;1291;545332;-76
2023/08/19 18:32:40;;;;;;;11.90;8.70;;;;;;;;;;103940;1288;545405;-76
2023/08/19 18:36:22;;;;;;;13.90;9.50;;;;;;;;;;103954;1286;547982;-76
2023/08/19 18:39:54;;;;;;;13.00;9.60;;;;;;;;;;103713;1292;545347;-77
2023/08/19 18:43:37;;;;;;;17.00;11.30;;;;;;;;;;103597;1292;548263;-75
2023/08/19 18:47:14;;;;;;;18.40;12.40;;;;;;;;;;104624;1280;547992;-79
2023/08/19 18:50:52;;;;;;;25.00;15.30;;;;;;;;;;103409;1297;547968;-76
2023/08/19 18:54:29;;;;;;;17.70;12.40;;;;;;;;;;103552;1291;548129;-76
2023/08/19 18:58:07;;;;;;;18.40;10.70;;;;;;;;;;103624;1292;547807;-76
2023/08/19 19:01:39;;;;;;;18.10;11.00;;;;;;;;;;103944;1290;545453;-78
2023/08/19 19:05:22;;;;;;;15.80;10.30;;;;;;;;;;103441;1293;548165;-75
2023/08/19 19:08:59;;;;;;;17.00;10.10;;;;;;;;;;103296;1295;547972;-77
2023/08/19 19:12:37;;;;;;;17.80;13.50;;;;;;;;;;104050;1289;547833;-76
2023/08/19 19:16:15;;;;;;;17.80;12.20;;;;;;;;;;103529;1293;546345;-76
2023/08/19 19:19:52;;;;;;;15.80;10.00;;;;;;;;;;103623;1292;548036;-76
2023/08/19 19:23:24;;;;;;;15.90;11.50;;;;;;;;;;104015;1289;544736;-80
2023/08/19 19:27:07;;;;;;;16.70;12.60;;;;;;;;;;103444;1292;548131;-78
2023/08/19 19:30:44;;;;;;;18.70;13.20;;;;;;;;;;103621;1291;546367;-77
2023/08/19 19:34:22;;;;;;;25.20;15.30;;;;;;;;;;103524;1290;548106;-76
2023/08/19 19:37:59;;;;;;;21.40;13.90;;;;;;;;;;103543;1292;546495;-78
2023/08/19 19:41:37;;;;;;;22.30;14.30;;;;;;;;;;103459;1292;547810;-78
2023/08/19 19:45:14;;;;;;;18.80;13.20;;;;;;;;;;103749;1289;547945;-76
2023/08/19 19:48:54;;;;;;;22.10;14.60;;;;;;;;;;103635;1291;547829;-77
2023/08/19 19:52:29;;;;;;;26.90;15.80;;;;;;;;;;103619;1292;547983;-76
2023/08/19 19:56:07;;;;;;;23.30;13.40;;;;;;;;;;103594;1289;548025;-78
2023/08/19 19:59:38;;;;;;;21.60;13.30;;;;;;;;;;103802;1290;544858;-75
2023/08/19 20:03:22;;;;;;;23.30;14.40;;;;;;;;;;103908;1288;547976;-80
2023/08/19 20:06:59;;;;;;;24.80;14.80;;;;;;;;;;103621;1295;547785;-75
2023/08/19 20:10:31;;;;;;;23.00;15.00;;;;;;;;;;104623;1282;545131;-75
2023/08/19 20:14:08;;;;;;;19.70;14.30;;;;;;;;;;103717;1292;545011;-79
2023/08/19 20:17:52;;;;;;;20.30;14.10;;;;;;;;;;103306;1308;547762;-75
2023/08/19 20:21:23;;;;;;;19.90;12.60;;;;;;;;;;104187;1289;544775;-78
2023/08/19 20:25:06;;;;;;;22.80;13.70;;;;;;;;;;103439;1292;547990;-77
2023/08/19 20:28:38;;;;;;;17.80;12.60;;;;;;;;;;103792;1292;545766;-77
2023/08/19 20:32:21;;;;;;;18.80;13.10;;;;;;;;;;103612;1292;547985;-77
2023/08/19 20:35:59;;;;;;;21.90;13.50;;;;;;;;;;103286;1294;547874;-77
2023/08/19 20:39:31;;;;;;;17.40;12.60;;;;;;;;;;103742;1289;545885;-77
2023/08/19 20:43:13;;;;;;;18.90;13.10;;;;;;;;;;103646;1296;548335;-75
2023/08/19 20:46:51;;;;;;;21.60;14.80;;;;;;;;;;103628;1290;548181;-77
2023/08/19 20:50:28;;;;;;;20.20;14.10;;;;;;;;;;103308;1298;547946;-77
2023/08/19 20:54:06;;;;;;;20.80;14.10;;;;;;;;;;103682;1289;547855;-77
2023/08/19 20:57:43;;;;;;;23.60;16.10;;;;;;;;;;103623;1290;547993;-77
2023/08/19 21:11:38;;;;;;;23.50;15.50;;;;;;;;;;104708;1285;549641;-75
2023/08/19 21:14:35;;;;;;;21.50;15.80;;;;;;;;;;103847;1292;548158;-80
2023/08/19 21:18:09;;;;;;;20.50;16.30;;;;;;;;;;103746;1288;548099;-77
2023/08/19 21:21:52;;;;;;;23.10;16.10;;;;;;;;;;103652;1295;547792;-78
2023/08/19 21:25:28;;;;;;;21.70;15.20;;;;;;;;;;103392;1305;548131;-75
2023/08/19 21:29:05;;;;;;;21.50;16.90;;;;;;;;;;103611;1292;547986;-75
2023/08/19 21:32:43;;;;;;;19.30;14.80;;;;;;;;;;103622;1292;548084;-79
2023/08/19 21:36:15;;;;;;;21.10;14.50;;;;;;;;;;103873;1289;544971;-77
2023/08/19 21:39:58;;;;;;;21.10;14.20;;;;;;;;;;103438;1294;547798;-76
2023/08/19 21:43:35;;;;;;;18.90;15.30;;;;;;;;;;103519;1291;547999;-81
2023/08/19 21:47:13;;;;;;;19.90;14.00;;;;;;;;;;103629;1292;547959;-77
2023/08/19 21:51:01;;;;;;;20.70;14.10;;;;;;;;;;103625;1292;548496;-77
2023/08/19 21:54:27;;;;;;;18.50;13.70;;;;;;;;;;103603;1292;545799;-77
2023/08/19 21:58:05;;;;;;;20.30;14.60;;;;;;;;;;103516;1294;547980;-77
2023/08/19 22:01:42;;;;;;;23.50;15.30;;;;;;;;;;103810;1288;547920;-77
2023/08/19 22:05:14;;;;;;;19.80;14.20;;;;;;;;;;103787;1291;545000;-77
2023/08/19 22:08:59;;;;;;;17.70;12.50;;;;;;;;;;103620;1294;547796;-82